Happy Valentine's Day! 

Flight Track Log - Related Links

Times and Time Zones

All times are in EDT time to prevent confusion due to time zone crossing. See the ASQ5873 flight status page for this flight to view local times or setup timezone preferences in your user account.


Time Position Orientation Groundspeed Altitude Reporting Facility
EDT Latitude Longitude Course Direction KTS MPH feet Rate Location/Type
Wed 09:30:40 AM 41.9333 -87.9000 95° East 189 217 2,300  Level Chicago TRACON
Wed 09:31:34 AM 41.9000 -87.8667 143° Southeast 235 270 4,500 2,579 Climbing Chicago TRACON
Wed 09:32:34 AM 41.8500 -87.8000 135° Southeast 279 321 7,200 2,750 Climbing Chicago TRACON
Wed 09:33:00 AM 41.9667 -87.6298 90° East  Level FlightAware Approximate
Wed 09:33:34 AM 41.8000 -87.7167 129° Southeast 298 343 10,000  Level Chicago TRACON
Wed 09:34:00 AM 41.9632 -87.5399 94° East  Level FlightAware Approximate
Wed 09:34:19 AM 41.7969 -87.6181 92° East 333 383 10,100  Level Chicago Center
Wed 09:35:00 AM 41.9579 -87.4502 95° East  Level FlightAware Approximate
Wed 09:35:21 AM 41.7989 -87.4783 89° East 370 426 10,100  Level Chicago Center
Wed 09:36:00 AM 41.9525 -87.3604 95° East  Level FlightAware Approximate
Wed 09:36:23 AM 41.8028 -87.3406 88° East 370 426 10,000  Level Chicago Center
Wed 09:37:25 AM 41.8044 -87.2064 89° East 364 419 10,000 48 Level Chicago Center
Wed 09:38:27 AM 41.8078 -87.0717 88° East 363 418 10,100  Climbing Chicago Center
Wed 09:39:29 AM 41.8000 -86.9069 94° East 368 423 10,000 -48 Descending Chicago Center
Wed 09:40:32 AM 41.7919 -86.7678 94° East 374 430 10,000  Level Chicago Center
Wed 09:41:34 AM 41.7856 -86.6408 94° East 371 427 10,000 -97 Level Chicago Center
Wed 09:42:36 AM 41.7792 -86.5147 94° East 331 381 9,800 -1,113 Descending Chicago Center
Wed 09:43:38 AM 41.7728 -86.4081 95° East 292 336 7,700 -2,323 Descending Chicago Center
Wed 09:44:40 AM 41.7614 -86.2878 97° East 271 312 5,000 -1,355 Descending Chicago Center
Wed 09:45:42 AM 41.7697 -86.1978 83° East 248 285 4,900 -484 Descending Chicago Center
Wed 09:46:44 AM 41.7800 -86.1069 81° East 250 288 4,000 -435 Descending Chicago Center
Wed 09:47:46 AM 41.7408 -86.0486 132° Southeast 257 296 4,000 -192 Level Chicago Center
Wed 09:48:49 AM 41.7058 -86.1136 234° Southwest 234 269 3,600 -871 Descending Chicago Center
Wed 09:49:50 AM 41.7053 -86.2111 270° West 220 253 2,200 -1,073 Descending Chicago Center
Wed 09:50:52 AM 41.7042 -86.2608 268° West 167 192 1,400 -774 Descending Chicago Center

Login

Don't have an account? Register now (free) for customized features, flight alerts, and more!